Etusivu
METAR-TAF:

METAR-TAF

Lentoasemat :

Toledo Suburban Airport

Lambertville, Michigan, Yhdysvallat

Leveyspiiri: 41-44-09N, Pituuspiiri: 083-39-19W, korkeus merenpinnasta: 204 m

Tämänhetkinen sää

Tämä raportti tehtiin 20 minuuttia sitten, kello 12.15 UTC
Tuuli 3 kn pohjoisesta/koillisesta
Lämpötila 5°C
Kosteus 93%
Ilmanpaine 1016 hPa
Näkyvyys: 11.3 km
Hajonneita pilviä 800 ft:n korkeudessa
Hajonneita pilviä 1400 ft:n korkeudessa
Pilvistä 1900 ft:n korkeudessa

METAR: KDUH 011215Z AUTO 02003KT 7SM BKN008 BKN014 OVC019 05/04 A2999 RMK AO2 T00500041

Aika: 08:35 (12:35 UTC)


TAF: puuttuu

Säähavainnot ja -ennusteet yli 4000 lentoasemalta (METAR- ja TAF-raportit).

Käytössä olevat sääasemat on merkitty karttaan keltaisilla ja punaisilla pisteillä.

Aseta hiiri pisteen päälle nähdäksesi sääaseman nimen.

Klikkaa sitten nähdäksesi säähavainnot ja -ennusteet.

Kartan vaihtaminen: klikkaa mustalla rastilla varustettuja vihreitä pisteitä, niin voit zoomata sisään; viivalla varustettua vihreää pistettä, niin voit zoomata ulos tai vihreitä nuolia, niin pääset viereisille kartoille.


METAR-TAF: